Time;durP1;ratioP1;P1;durP2;ratioP2;P2;SDS_P1;SDS_P2;PMS_P1;PMS_P2;Temp;Humidity;BMP_temperature;BMP_pressure;BME280_temperature;BME280_humidity;BME280_pressure;Samples;Min_cycle;Max_cycle;Signal;HPM_P1;HPM_P2
2023/07/09 00:02:20;;;;;;;5.77;5.17;;;22.70;92.10;;;;;;5005460;28;20446;-72
2023/07/09 00:04:46;;;;;;;5.20;4.70;;;22.70;92.40;;;;;;5008824;28;20812;-71
2023/07/09 00:07:29;;;;;;;5.43;4.93;;;22.70;92.60;;;;;;5006565;28;20445;-71
2023/07/09 00:09:55;;;;;;;6.17;4.97;;;22.60;92.80;;;;;;5008231;28;20213;-71
2023/07/09 00:12:21;;;;;;;6.33;5.20;;;22.60;93.00;;;;;;5010740;28;20445;-72
2023/07/09 00:14:47;;;;;;;5.13;4.63;;;22.60;93.40;;;;;;5009336;28;20445;-72
2023/07/09 00:17:42;;;;;;;6.50;4.50;;;22.50;93.90;;;;;;5006859;28;20492;-71
2023/07/09 00:20:13;;;;;;;6.87;4.60;;;22.50;93.70;;;;;;5007963;28;20507;-72
2023/07/09 00:22:41;;;;;;;5.40;4.90;;;22.50;93.80;;;;;;5004938;28;20857;-71
2023/07/09 00:25:16;;;;;;;6.07;5.20;;;22.40;94.10;;;;;;5010565;28;20958;-72
2023/07/09 00:27:46;;;;;;;5.23;4.73;;;22.40;94.40;;;;;;5006160;28;20445;-72
2023/07/09 00:30:18;;;;;;;5.27;4.77;;;22.30;94.40;;;;;;5007714;28;20575;-72
2023/07/09 00:32:43;;;;;;;7.97;5.07;;;22.30;94.40;;;;;;5008822;28;20575;-72
2023/07/09 00:35:12;;;;;;;7.03;4.60;;;22.30;94.60;;;;;;5009270;28;21268;-71
2023/07/09 00:37:38;;;;;;;4.33;4.03;;;22.20;94.70;;;;;;5006950;28;20433;-72
2023/07/09 00:40:04;;;;;;;6.03;5.00;;;22.10;94.90;;;;;;5008197;28;20448;-72
2023/07/09 00:42:30;;;;;;;5.43;4.93;;;22.20;95.00;;;;;;5024065;28;20495;-72
2023/07/09 00:44:56;;;;;;;7.70;4.90;;;22.10;95.10;;;;;;5006490;28;20438;-72
2023/07/09 00:47:49;;;;;;;5.53;5.03;;;22.10;95.20;;;;;;5009631;28;20210;-71
2023/07/09 00:50:33;;;;;;;6.20;5.17;;;22.10;95.10;;;;;;5016032;28;20572;-73
2023/07/09 00:53:07;;;;;;;5.93;4.93;;;22.10;95.20;;;;;;5016181;28;20826;-72
2023/07/09 00:55:37;;;;;;;5.13;4.70;;;22.10;95.30;;;;;;5006983;28;20528;-74
2023/07/09 00:58:06;;;;;;;5.50;4.70;;;22.10;95.30;;;;;;5009470;28;20445;-73
2023/07/09 01:00:46;;;;;;;5.37;4.87;;;22.10;95.30;;;;;;5007155;28;20450;-71
2023/07/09 01:03:33;;;;;;;5.60;5.10;;;22.10;95.40;;;;;;5006381;28;20846;-71
2023/07/09 01:05:59;;;;;;;5.10;4.60;;;22.10;95.30;;;;;;5010259;28;21095;-72
2023/07/09 01:08:27;;;;;;;4.63;4.23;;;22.10;95.10;;;;;;5011288;28;20457;-69
2023/07/09 01:10:52;;;;;;;5.57;4.97;;;22.10;95.20;;;;;;5013322;28;20190;-72
2023/07/09 01:13:19;;;;;;;5.47;4.97;;;22.00;95.40;;;;;;5011397;28;20473;-73
2023/07/09 01:15:46;;;;;;;5.00;4.50;;;22.00;95.60;;;;;;5011652;28;20183;-73
2023/07/09 01:18:14;;;;;;;4.90;4.50;;;21.90;95.80;;;;;;5012702;28;20450;-73
2023/07/09 01:20:40;;;;;;;4.80;4.30;;;21.90;96.00;;;;;;5009858;28;20442;-71
2023/07/09 01:23:05;;;;;;;6.63;4.90;;;21.80;96.10;;;;;;5009820;28;20457;-69
2023/07/09 01:25:31;;;;;;;5.03;4.63;;;21.80;96.30;;;;;;5013350;28;20179;-71
2023/07/09 01:27:57;;;;;;;5.40;4.90;;;21.70;96.70;;;;;;5010759;28;20202;-70
2023/07/09 01:30:30;;;;;;;6.00;4.70;;;21.60;96.90;;;;;;5011243;28;20222;-70
2023/07/09 01:32:58;;;;;;;5.37;4.80;;;21.60;97.00;;;;;;5012349;28;20211;-70
2023/07/09 01:35:26;;;;;;;5.18;4.72;;;21.50;97.20;;;;;;5010673;28;20446;-71
2023/07/09 01:37:52;;;;;;;5.53;5.03;;;21.50;97.50;;;;;;5010492;28;20186;-70
2023/07/09 01:40:20;;;;;;;5.40;4.90;;;21.40;97.60;;;;;;5008176;28;20456;-70
2023/07/09 01:42:45;;;;;;;5.22;4.75;;;21.50;97.50;;;;;;5009099;28;20207;-70
2023/07/09 01:45:12;;;;;;;5.40;4.70;;;21.40;97.80;;;;;;5009896;28;20183;-70
2023/07/09 01:47:39;;;;;;;5.33;4.83;;;21.30;97.90;;;;;;5009812;28;20191;-69
2023/07/09 01:50:06;;;;;;;5.93;5.20;;;21.30;98.20;;;;;;5012990;28;20464;-69
2023/07/09 01:52:33;;;;;;;6.10;5.50;;;21.20;98.50;;;;;;5011722;28;20207;-69
2023/07/09 01:54:59;;;;;;;5.53;5.00;;;21.20;98.80;;;;;;5009086;28;20525;-70
2023/07/09 01:57:35;;;;;;;6.30;5.78;;;21.20;98.90;;;;;;5011653;28;20433;-70
2023/07/09 02:00:10;;;;;;;5.18;4.70;;;21.10;99.10;;;;;;5008918;28;20182;-69
2023/07/09 02:02:38;;;;;;;7.10;4.70;;;21.10;99.20;;;;;;5009150;28;20198;-69
2023/07/09 02:05:05;;;;;;;5.43;4.78;;;21.10;99.20;;;;;;5011375;28;20637;-69
2023/07/09 02:07:31;;;;;;;5.53;4.30;;;20.80;99.20;;;;;;5009371;28;20203;-70
2023/07/09 02:09:58;;;;;;;4.87;4.37;;;21.10;99.10;;;;;;5010066;28;20477;-70
2023/07/09 02:12:23;;;;;;;5.18;4.68;;;21.00;98.90;;;;;;5013387;28;20490;-70
2023/07/09 02:14:49;;;;;;;5.60;4.40;;;21.00;99.10;;;;;;5009419;28;20191;-70
2023/07/09 02:17:15;;;;;;;5.57;4.97;;;20.90;99.20;;;;;;5006640;28;20179;-69
2023/07/09 02:19:41;;;;;;;5.35;4.85;;;20.90;99.40;;;;;;5008220;28;20190;-70
2023/07/09 02:22:07;;;;;;;5.20;4.60;;;20.90;99.50;;;;;;5011162;28;20190;-69
2023/07/09 02:24:33;;;;;;;5.22;4.72;;;20.80;99.60;;;;;;5014826;28;20245;-70
2023/07/09 02:27:00;;;;;;;6.50;4.70;;;20.80;99.60;;;;;;5011677;28;20214;-69
2023/07/09 02:29:27;;;;;;;5.43;4.55;;;20.80;99.60;;;;;;5009223;28;20461;-70
2023/07/09 02:31:55;;;;;;;5.97;5.00;;;20.80;99.70;;;;;;5011153;28;20191;-70
2023/07/09 02:34:25;;;;;;;5.70;4.85;;;20.90;99.60;;;;;;5010946;28;20268;-70
2023/07/09 02:36:52;;;;;;;5.17;4.67;;;20.80;99.80;;;;;;5017189;28;20201;-71
2023/07/09 02:39:17;;;;;;;5.63;4.97;;;20.80;99.90;;;;;;5011489;28;20445;-69
2023/07/09 02:41:43;;;;;;;5.17;4.40;;;20.80;99.90;;;;;;5009951;28;20184;-70
2023/07/09 02:44:09;;;;;;;6.33;4.37;;;20.80;99.90;;;;;;5010769;28;20260;-69
2023/07/09 02:46:35;;;;;;;8.43;5.03;;;20.80;99.90;;;;;;5010697;28;20190;-70
2023/07/09 02:49:03;;;;;;;5.22;4.55;;;20.90;99.90;;;;;;5014732;28;20314;-69
2023/07/09 02:51:28;;;;;;;4.90;4.40;;;20.90;99.70;;;;;;5018994;22;20253;-68
2023/07/09 02:53:55;;;;;;;5.43;4.17;;;20.80;99.70;;;;;;5015642;28;20202;-67
2023/07/09 02:56:21;;;;;;;4.25;3.90;;;20.80;99.70;;;;;;5014630;28;20185;-69
2023/07/09 02:58:47;;;;;;;5.20;4.70;;;20.80;99.90;;;;;;5012153;28;20285;-70
2023/07/09 03:01:13;;;;;;;5.50;4.20;;;20.70;99.90;;;;;;5010516;28;20274;-67
2023/07/09 03:03:38;;;;;;;9.73;4.80;;;20.80;99.90;;;;;;5016925;28;20633;-67
2023/07/09 03:06:06;;;;;;;5.23;4.80;;;20.80;99.90;;;;;;5012313;28;20189;-70
2023/07/09 03:08:31;;;;;;;4.70;4.20;;;20.70;99.90;;;;;;5013019;28;20187;-67
2023/07/09 03:10:57;;;;;;;5.20;4.33;;;20.70;99.90;;;;;;5014919;28;20198;-67
2023/07/09 03:13:23;;;;;;;5.83;4.30;;;20.70;99.90;;;;;;5018000;28;20209;-67
2023/07/09 03:15:56;;;;;;;5.37;4.77;;;20.70;99.90;;;;;;5012625;28;20187;-66
2023/07/09 03:18:22;;;;;;;4.75;4.35;;;20.70;99.90;;;;;;5011082;28;20194;-67
2023/07/09 03:20:47;;;;;;;5.72;4.40;;;20.70;99.90;;;;;;5010358;28;20222;-67
2023/07/09 03:23:13;;;;;;;5.80;5.20;;;20.70;99.90;;;;;;5005344;28;20202;-71
2023/07/09 03:25:44;;;;;;;8.73;5.37;;;20.80;99.90;;;;;;5011739;28;20182;-68
2023/07/09 03:28:11;;;;;;;5.65;5.15;;;20.60;99.90;;;;;;5006670;28;20702;-67
2023/07/09 03:30:45;;;;;;;6.75;5.50;;;20.60;99.90;;;;;;5011950;28;20222;-67
2023/07/09 03:33:11;;;;;;;7.18;5.07;;;20.60;99.90;;;;;;5010228;28;20855;-68
2023/07/09 03:35:38;;;;;;;6.35;5.10;;;20.50;99.90;;;;;;5008851;28;20191;-67
2023/07/09 03:38:07;;;;;;;6.15;4.80;;;20.70;99.90;;;;;;5011805;28;20201;-68
2023/07/09 03:40:33;;;;;;;5.10;4.55;;;20.80;99.90;;;;;;5008705;28;20519;-68
2023/07/09 03:42:59;;;;;;;5.95;4.68;;;20.80;99.90;;;;;;5011379;28;20202;-68
2023/07/09 03:45:25;;;;;;;5.38;4.68;;;20.70;99.90;;;;;;5006584;28;20181;-67
2023/07/09 03:47:51;;;;;;;5.20;4.70;;;20.70;99.90;;;;;;5009642;28;20190;-68
2023/07/09 03:50:17;;;;;;;5.13;4.63;;;20.90;99.90;;;;;;5012567;28;20478;-69
2023/07/09 03:52:43;;;;;;;5.07;4.57;;;20.80;99.90;;;;;;5008517;28;20481;-70
2023/07/09 03:55:09;;;;;;;7.00;4.70;;;20.80;99.90;;;;;;5009345;28;20209;-68
2023/07/09 03:57:35;;;;;;;5.53;4.30;;;20.80;99.90;;;;;;5009561;28;20186;-68
2023/07/09 04:00:02;;;;;;;4.57;4.10;;;20.80;99.90;;;;;;5009731;28;20187;-68
2023/07/09 04:02:28;;;;;;;5.30;4.80;;;20.80;99.90;;;;;;5007373;28;20694;-68
2023/07/09 04:04:54;;;;;;;5.10;4.70;;;20.70;99.90;;;;;;5009260;28;20199;-71
2023/07/09 04:07:19;;;;;;;5.30;4.80;;;20.70;99.90;;;;;;5001740;28;20590;-68
2023/07/09 04:09:45;;;;;;;6.00;4.90;;;20.80;99.90;;;;;;5011802;28;20222;-67
2023/07/09 04:12:11;;;;;;;4.87;4.47;;;20.80;99.90;;;;;;5006735;28;20728;-70
2023/07/09 04:14:36;;;;;;;4.77;4.27;;;20.80;99.90;;;;;;5006095;28;20179;-71
2023/07/09 04:17:02;;;;;;;8.43;5.23;;;20.80;99.90;;;;;;5007469;28;20249;-68
2023/07/09 04:19:28;;;;;;;6.15;4.90;;;20.80;99.90;;;;;;5007010;28;20217;-67
2023/07/09 04:21:54;;;;;;;7.33;5.40;;;20.90;99.90;;;;;;5004632;28;20242;-68
2023/07/09 04:24:20;;;;;;;4.63;4.23;;;20.90;99.90;;;;;;5007237;28;20212;-71
2023/07/09 04:26:47;;;;;;;5.28;4.70;;;20.90;99.90;;;;;;5009644;28;20198;-68
2023/07/09 04:29:13;;;;;;;6.60;5.00;;;20.90;99.90;;;;;;5005597;28;20238;-68
2023/07/09 04:31:41;;;;;;;5.40;4.90;;;21.00;99.90;;;;;;5008347;28;20190;-68
2023/07/09 04:34:07;;;;;;;5.43;4.45;;;21.00;99.90;;;;;;5010150;28;20203;-69
2023/07/09 04:36:33;;;;;;;5.78;4.65;;;21.10;99.90;;;;;;5009848;28;20639;-68
2023/07/09 04:38:59;;;;;;;5.50;5.00;;;21.20;99.90;;;;;;5006728;28;20270;-68
2023/07/09 04:41:25;;;;;;;5.70;5.17;;;21.30;99.80;;;;;;5007803;28;20776;-70
2023/07/09 04:43:50;;;;;;;4.73;4.33;;;21.30;99.50;;;;;;5007404;28;20268;-71
2023/07/09 04:46:16;;;;;;;5.47;4.63;;;21.40;99.50;;;;;;5008666;28;20194;-68
2023/07/09 04:48:42;;;;;;;5.97;4.53;;;21.50;99.40;;;;;;5006114;28;20214;-69
2023/07/09 04:51:08;;;;;;;5.17;4.77;;;21.50;99.20;;;;;;5004884;28;20561;-68
2023/07/09 04:53:34;;;;;;;4.80;4.40;;;21.60;99.10;;;;;;5008676;28;21065;-70
2023/07/09 04:56:02;;;;;;;5.40;4.90;;;21.70;98.90;;;;;;5010388;28;20199;-69
2023/07/09 04:58:28;;;;;;;5.30;4.80;;;21.80;98.80;;;;;;5005463;28;20187;-71
2023/07/09 05:00:57;;;;;;;5.13;4.67;;;21.90;98.60;;;;;;5019671;28;20445;-71
2023/07/09 05:03:22;;;;;;;5.80;5.27;;;22.00;98.50;;;;;;5007903;28;20461;-71
2023/07/09 05:05:48;;;;;;;5.53;5.00;;;22.10;98.40;;;;;;5008846;28;20495;-72
2023/07/09 05:08:14;;;;;;;4.90;4.50;;;22.20;98.20;;;;;;5006938;28;20202;-71
2023/07/09 05:10:42;;;;;;;5.83;5.10;;;22.50;98.30;;;;;;5003755;28;20257;-71
2023/07/09 05:13:07;;;;;;;5.80;4.77;;;22.30;98.00;;;;;;5005408;28;20465;-71
2023/07/09 05:15:33;;;;;;;4.53;4.23;;;22.40;97.90;;;;;;5007692;28;20449;-72
2023/07/09 05:17:59;;;;;;;5.07;4.57;;;22.50;97.90;;;;;;5022413;28;20179;-72
2023/07/09 05:20:24;;;;;;;5.70;5.20;;;22.60;97.70;;;;;;5006553;28;20225;-72
2023/07/09 05:22:50;;;;;;;5.87;5.20;;;22.70;97.50;;;;;;5006504;28;20214;-72
2023/07/09 05:25:16;;;;;;;5.13;4.73;;;22.80;97.30;;;;;;5011703;28;20448;-71
2023/07/09 05:27:42;;;;;;;5.00;4.60;;;23.00;97.00;;;;;;5004023;28;20548;-71
2023/07/09 05:30:08;;;;;;;5.70;5.20;;;23.10;96.70;;;;;;5006887;28;20733;-72
2023/07/09 05:32:36;;;;;;;5.87;5.37;;;23.30;96.50;;;;;;5006502;28;20462;-72
2023/07/09 05:35:02;;;;;;;5.53;4.90;;;23.30;96.30;;;;;;5004889;28;20969;-72
2023/07/09 05:37:27;;;;;;;5.07;4.67;;;23.50;96.20;;;;;;5002472;28;20433;-72
2023/07/09 05:39:53;;;;;;;5.20;4.80;;;23.60;96.00;;;;;;5006071;28;20191;-68
2023/07/09 05:42:19;;;;;;;5.60;5.13;;;23.80;95.20;;;;;;5005643;28;20199;-75
2023/07/09 05:44:44;;;;;;;8.40;5.53;;;23.80;95.50;;;;;;5003750;28;20240;-72
2023/07/09 05:47:10;;;;;;;6.07;5.57;;;23.80;95.40;;;;;;5001721;28;20238;-68
2023/07/09 05:49:37;;;;;;;5.13;4.70;;;23.90;95.30;;;;;;5005577;28;20206;-66
2023/07/09 05:52:03;;;;;;;5.90;5.30;;;24.00;95.00;;;;;;5007644;28;20206;-65
2023/07/09 05:54:29;;;;;;;4.87;4.37;;;24.20;94.90;;;;;;5007618;28;20856;-66
2023/07/09 05:56:54;;;;;;;5.83;5.30;;;24.30;94.60;;;;;;5010971;28;20472;-66
2023/07/09 05:59:20;;;;;;;6.30;5.70;;;24.40;94.30;;;;;;5007256;28;20207;-66
2023/07/09 06:01:46;;;;;;;5.80;5.30;;;24.50;94.20;;;;;;5005792;28;20199;-68
2023/07/09 06:04:13;;;;;;;5.80;5.30;;;24.70;93.90;;;;;;5011811;28;20218;-67
2023/07/09 06:06:41;;;;;;;7.37;5.43;;;24.80;93.70;;;;;;5006408;28;20275;-67
2023/07/09 06:09:08;;;;;;;5.10;4.70;;;25.00;93.80;;;;;;5010363;28;20514;-67
2023/07/09 06:11:34;;;;;;;5.43;4.93;;;25.20;93.40;;;;;;5010829;28;20470;-67
2023/07/09 06:13:59;;;;;;;6.53;5.03;;;25.30;93.30;;;;;;5009405;28;20482;-67
2023/07/09 06:16:25;;;;;;;6.07;5.17;;;25.40;93.10;;;;;;5010154;28;20448;-68
2023/07/09 06:18:51;;;;;;;5.70;5.07;;;25.60;92.90;;;;;;5010540;28;21597;-68
2023/07/09 06:21:16;;;;;;;6.33;5.63;;;25.60;92.10;;;;;;5012658;28;20550;-68
2023/07/09 06:23:42;;;;;;;6.17;5.57;;;25.80;92.10;;;;;;5008609;28;20685;-68
2023/07/09 06:26:08;;;;;;;5.50;5.00;;;25.90;91.90;;;;;;5011823;28;20195;-68
2023/07/09 06:28:33;;;;;;;5.30;4.80;;;26.10;91.50;;;;;;5008138;28;20674;-68
2023/07/09 06:30:59;;;;;;;5.90;5.40;;;26.20;91.00;;;;;;5011026;28;20202;-67
2023/07/09 06:33:26;;;;;;;5.97;5.33;;;26.30;90.90;;;;;;5013462;28;20220;-68
2023/07/09 06:35:54;;;;;;;5.93;5.07;;;26.50;90.50;;;;;;5011418;28;20454;-68
2023/07/09 06:38:20;;;;;;;6.10;5.60;;;26.50;89.90;;;;;;5013065;28;20460;-68
2023/07/09 06:40:46;;;;;;;6.30;5.33;;;26.60;89.10;;;;;;5016533;28;20449;-67
2023/07/09 06:43:12;;;;;;;5.50;5.07;;;26.80;88.60;;;;;;5008027;28;20473;-68
2023/07/09 06:45:38;;;;;;;6.57;5.07;;;26.80;88.60;;;;;;5010935;28;20762;-68
2023/07/09 06:48:04;;;;;;;5.50;5.00;;;26.90;87.20;;;;;;5011494;28;20937;-68
2023/07/09 06:50:33;;;;;;;6.20;5.63;;;27.00;87.10;;;;;;5010698;28;20458;-68
2023/07/09 06:52:58;;;;;;;8.30;5.60;;;27.20;86.20;;;;;;5009619;28;20579;-68
2023/07/09 06:55:25;;;;;;;6.30;5.50;;;27.40;84.80;;;;;;5014404;28;20477;-69
2023/07/09 06:57:51;;;;;;;5.70;5.20;;;27.50;84.60;;;;;;5009736;28;20274;-67
2023/07/09 07:00:16;;;;;;;5.40;5.00;;;27.70;84.60;;;;;;5012067;28;21014;-68
2023/07/09 07:02:42;;;;;;;6.60;5.60;;;27.90;82.90;;;;;;5009411;28;20213;-69
2023/07/09 07:05:08;;;;;;;6.47;5.87;;;28.20;82.80;;;;;;5010370;28;20187;-68
2023/07/09 07:07:33;;;;;;;5.10;4.70;;;28.60;80.90;;;;;;5006371;28;20302;-66
2023/07/09 07:09:59;;;;;;;6.40;5.40;;;28.80;78.50;;;;;;5008805;28;20225;-67
2023/07/09 07:12:26;;;;;;;5.57;4.93;;;29.70;76.80;;;;;;5011369;28;20191;-65
2023/07/09 07:14:53;;;;;;;6.33;5.80;;;31.60;72.30;;;;;;5009190;28;20256;-65
2023/07/09 07:17:18;;;;;;;6.70;6.07;;;35.50;63.00;;;;;;5007383;28;21116;-66
2023/07/09 07:19:44;;;;;;;5.63;5.17;;;38.10;54.00;;;;;;5008670;28;20489;-66
2023/07/09 07:22:10;;;;;;;5.83;5.33;;;40.60;48.10;;;;;;5009154;28;20237;-65
2023/07/09 07:24:36;;;;;;;6.30;4.67;;;42.00;43.30;;;;;;5005083;28;20454;-65
2023/07/09 07:27:01;;;;;;;5.20;4.80;;;43.90;39.60;;;;;;5005178;28;20261;-71
2023/07/09 07:29:27;;;;;;;5.13;4.77;;;44.60;36.90;;;;;;5007161;28;20505;-69
2023/07/09 07:31:54;;;;;;;4.87;4.57;;;45.00;35.10;;;;;;5012312;28;20183;-76
2023/07/09 07:34:19;;;;;;;5.10;4.80;;;45.20;34.00;;;;;;5013012;28;20229;-71
2023/07/09 07:36:45;;;;;;;5.20;4.70;;;45.20;33.70;;;;;;5008691;28;20938;-71
2023/07/09 07:39:11;;;;;;;4.97;4.57;;;45.80;32.70;;;;;;5013831;28;20198;-81
2023/07/09 07:41:36;;;;;;;5.50;5.10;;;47.10;31.10;;;;;;5016156;28;20226;-72
2023/07/09 07:44:02;;;;;;;5.20;4.80;;;46.20;30.70;;;;;;5006570;28;20206;-71
2023/07/09 07:46:29;;;;;;;5.47;4.97;;;47.00;30.40;;;;;;5008768;28;20241;-71
2023/07/09 07:48:54;;;;;;;5.50;5.10;;;46.50;29.60;;;;;;5005652;28;20214;-73
2023/07/09 07:51:22;;;;;;;4.83;4.43;;;47.30;29.50;;;;;;5005746;28;20476;-73
2023/07/09 07:53:48;;;;;;;5.57;4.93;;;46.90;29.50;;;;;;5015988;28;20218;-73
2023/07/09 07:56:14;;;;;;;6.17;5.70;;;48.20;28.80;;;;;;5005436;28;20470;-75
2023/07/09 07:58:40;;;;;;;6.57;5.80;;;48.20;28.00;;;;;;5007251;28;20949;-75
2023/07/09 08:01:05;;;;;;;5.63;5.00;;;48.70;28.00;;;;;;5008039;28;20509;-73
2023/07/09 08:03:31;;;;;;;5.30;4.80;;;49.30;27.20;;;;;;5007702;28;20206;-73
2023/07/09 08:05:57;;;;;;;5.40;5.10;;;49.40;26.60;;;;;;5014053;28;20269;-72
2023/07/09 08:08:22;;;;;;;4.97;4.67;;;48.90;27.10;;;;;;5004508;28;20183;-72
2023/07/09 08:10:50;;;;;;;4.90;4.40;;;49.00;27.10;;;;;;5012512;28;20296;-73
2023/07/09 08:13:16;;;;;;;6.13;5.63;;;49.70;26.70;;;;;;5005945;28;20229;-71
2023/07/09 08:15:42;;;;;;;6.00;5.50;;;49.30;25.80;;;;;;5007673;28;21432;-73
2023/07/09 08:18:08;;;;;;;6.10;5.60;;;49.00;26.60;;;;;;5008174;28;20644;-73
2023/07/09 08:20:33;;;;;;;5.57;5.00;;;49.40;26.10;;;;;;5004489;28;20294;-74
2023/07/09 08:22:59;;;;;;;5.77;5.10;;;48.00;26.30;;;;;;5006927;28;20213;-73
2023/07/09 08:25:25;;;;;;;5.87;5.47;;;48.30;26.50;;;;;;5023229;28;20198;-75
2023/07/09 08:27:50;;;;;;;6.87;4.90;;;48.50;26.30;;;;;;5006654;28;20196;-79
2023/07/09 08:30:16;;;;;;;5.70;5.30;;;48.80;26.30;;;;;;5008083;28;20587;-76
2023/07/09 08:32:41;;;;;;;5.67;5.13;;;48.70;25.90;;;;;;5008772;28;20250;-76
2023/07/09 08:35:10;;;;;;;5.60;5.10;;;49.10;25.90;;;;;;5009138;28;20187;-76
2023/07/09 08:37:35;;;;;;;5.67;5.20;;;49.50;25.50;;;;;;5003574;28;20274;-74
2023/07/09 08:40:01;;;;;;;5.23;4.80;;;50.00;25.20;;;;;;5005274;28;20572;-73
2023/07/09 08:42:46;;;;;;;5.23;4.93;;;49.60;25.40;;;;;;5005234;28;20211;-75
2023/07/09 08:45:37;;;;;;;5.53;5.13;;;46.60;26.70;;;;;;5006536;28;20186;-69
2023/07/09 08:48:36;;;;;;;5.10;4.70;;;46.80;27.30;;;;;;5009733;28;20450;-76
2023/07/09 08:51:35;;;;;;;5.23;4.77;;;48.00;26.70;;;;;;5008257;28;20457;-72
2023/07/09 08:54:00;;;;;;;5.37;4.93;;;47.30;27.00;;;;;;5005028;28;20464;-68
2023/07/09 08:56:30;;;;;;;6.30;5.80;;;47.00;27.30;;;;;;5008212;28;20520;-68
2023/07/09 08:59:00;;;;;;;5.60;5.30;;;47.90;27.20;;;;;;5006263;28;20679;-73
2023/07/09 09:01:36;;;;;;;5.77;5.30;;;47.90;26.80;;;;;;5003200;28;20962;-73
2023/07/09 09:04:21;;;;;;;5.60;5.20;;;47.10;27.50;;;;;;5010865;28;20798;-73
2023/07/09 09:06:54;;;;;;;6.53;5.90;;;47.80;27.30;;;;;;5003915;28;20487;-74
2023/07/09 09:09:39;;;;;;;5.73;5.33;;;47.80;26.90;;;;;;5006769;28;20466;-73
2023/07/09 09:12:27;;;;;;;6.17;5.70;;;47.90;27.10;;;;;;5011214;28;20499;-74
2023/07/09 09:15:18;;;;;;;6.77;5.80;;;48.20;26.90;;;;;;5021728;28;20438;-74
2023/07/09 09:17:44;;;;;;;7.07;6.57;;;47.90;26.80;;;;;;5005803;28;20433;-73
2023/07/09 09:20:17;;;;;;;6.10;5.50;;;48.30;26.70;;;;;;5006777;28;20917;-74
2023/07/09 09:23:15;;;;;;;6.30;5.70;;;47.50;26.90;;;;;;5006790;28;20485;-74
2023/07/09 09:25:46;;;;;;;5.00;4.70;;;47.00;27.10;;;;;;5007582;28;20438;-74
2023/07/09 09:28:12;;;;;;;5.90;5.40;;;46.70;27.30;;;;;;5010970;28;20433;-73
2023/07/09 09:30:37;;;;;;;5.77;5.37;;;47.10;27.20;;;;;;5008889;28;20469;-73
2023/07/09 09:33:07;;;;;;;5.40;4.90;;;47.50;26.80;;;;;;5013221;28;20304;-74
2023/07/09 09:35:36;;;;;;;6.03;5.53;;;47.20;26.80;;;;;;5010512;28;20175;-74
2023/07/09 09:38:09;;;;;;;5.50;5.10;;;47.00;26.40;;;;;;5010704;28;20438;-73
2023/07/09 09:40:35;;;;;;;6.13;5.63;;;45.80;26.70;;;;;;5012075;28;20494;-74
2023/07/09 09:43:01;;;;;;;7.10;5.20;;;45.50;27.70;;;;;;5006821;28;20703;-73
2023/07/09 09:45:37;;;;;;;5.37;4.97;;;45.90;27.40;;;;;;5014568;28;20456;-76
2023/07/09 09:48:31;;;;;;;5.33;4.83;;;45.90;27.40;;;;;;5013565;28;20483;-73
2023/07/09 09:51:01;;;;;;;5.00;4.60;;;46.90;26.70;;;;;;5011476;28;20830;-75
2023/07/09 09:53:28;;;;;;;4.30;4.00;;;47.70;25.00;;;;;;5009645;28;20992;-73
2023/07/09 09:55:56;;;;;;;3.83;3.53;;;48.00;24.40;;;;;;5013986;28;20461;-73
2023/07/09 09:58:29;;;;;;;3.77;3.47;;;48.30;23.70;;;;;;5007967;28;20461;-73
2023/07/09 10:00:57;;;;;;;3.60;3.30;;;48.00;23.00;;;;;;5012584;28;20437;-73
2023/07/09 10:03:36;;;;;;;3.50;3.20;;;48.40;22.70;;;;;;5010298;28;20461;-73
2023/07/09 10:06:23;;;;;;;4.23;3.83;;;48.50;22.00;;;;;;5012058;28;20477;-73
2023/07/09 10:09:02;;;;;;;4.00;3.70;;;49.00;21.90;;;;;;5008669;28;20579;-73
2023/07/09 10:11:36;;;;;;;4.30;4.00;;;48.60;22.10;;;;;;5009283;28;21207;-73
2023/07/09 10:14:12;;;;;;;4.30;4.00;;;48.80;22.30;;;;;;5010226;28;20495;-73
2023/07/09 10:16:45;;;;;;;4.40;4.00;;;48.70;22.30;;;;;;5012135;28;20441;-73
2023/07/09 10:19:15;;;;;;;4.30;3.90;;;49.20;22.60;;;;;;5011817;28;20433;-73
2023/07/09 10:21:52;;;;;;;4.20;3.90;;;48.30;22.50;;;;;;5004543;28;20448;-73
2023/07/09 10:24:39;;;;;;;4.00;3.70;;;47.90;22.10;;;;;;5006812;28;20461;-73
2023/07/09 10:27:07;;;;;;;4.53;3.90;;;48.30;21.50;;;;;;5010025;28;20456;-73
2023/07/09 10:29:51;;;;;;;4.40;4.00;;;47.40;22.50;;;;;;5006860;28;20531;-73
2023/07/09 10:32:33;;;;;;;4.23;3.83;;;45.10;23.70;;;;;;5010323;28;20528;-73
2023/07/09 10:35:17;;;;;;;4.40;3.97;;;44.40;24.20;;;;;;5009101;28;20447;-73
2023/07/09 10:37:45;;;;;;;3.97;3.30;;;43.40;25.00;;;;;;5004311;28;20965;-73
2023/07/09 10:40:14;;;;;;;4.10;3.70;;;42.80;25.30;;;;;;5012989;28;20445;-73
2023/07/09 10:42:48;;;;;;;4.07;3.67;;;42.00;25.90;;;;;;5004635;28;20899;-73
2023/07/09 10:45:18;;;;;;;3.73;3.43;;;41.60;26.10;;;;;;5010856;28;20469;-73
2023/07/09 10:47:46;;;;;;;3.50;3.20;;;41.80;26.30;;;;;;5010896;28;20430;-73
2023/07/09 10:50:42;;;;;;;4.17;3.53;;;41.60;25.60;;;;;;5009839;28;20556;-74
2023/07/09 10:53:29;;;;;;;3.73;3.43;;;42.00;25.70;;;;;;5005217;28;21188;-73
2023/07/09 10:56:05;;;;;;;5.17;3.40;;;42.70;25.10;;;;;;5011192;28;20438;-73
2023/07/09 10:58:53;;;;;;;5.00;4.07;;;42.90;25.10;;;;;;5005939;28;20433;-73
2023/07/09 11:01:28;;;;;;;3.73;3.43;;;43.70;24.90;;;;;;5009170;28;20469;-73
2023/07/09 11:04:08;;;;;;;6.10;4.30;;;43.60;24.70;;;;;;5009330;28;20463;-73
2023/07/09 11:06:46;;;;;;;4.50;3.90;;;44.70;24.10;;;;;;5008648;28;20448;-73
2023/07/09 11:09:24;;;;;;;3.50;3.20;;;45.20;24.10;;;;;;5006033;28;20809;-74
2023/07/09 11:11:54;;;;;;;4.30;3.90;;;45.20;23.80;;;;;;5007106;28;20433;-74
2023/07/09 11:14:26;;;;;;;3.93;3.57;;;45.70;23.40;;;;;;5008343;28;20504;-74
2023/07/09 11:16:54;;;;;;;4.00;3.70;;;45.40;23.20;;;;;;5007145;28;20534;-74
2023/07/09 11:19:20;;;;;;;5.57;4.70;;;46.00;22.30;;;;;;5007892;28;20453;-74
2023/07/09 11:22:09;;;;;;;4.40;4.00;;;45.90;22.20;;;;;;5009589;28;20449;-74
2023/07/09 11:24:46;;;;;;;4.43;4.03;;;45.60;22.30;;;;;;5008864;28;20508;-74
2023/07/09 11:27:24;;;;;;;5.50;5.00;;;45.50;22.60;;;;;;5007141;28;20449;-74
2023/07/09 11:29:58;;;;;;;5.70;5.10;;;46.10;22.20;;;;;;5004681;28;20827;-74
2023/07/09 11:32:25;;;;;;;4.33;3.93;;;46.00;21.30;;;;;;5007653;28;20441;-74
2023/07/09 11:34:50;;;;;;;5.40;3.97;;;46.00;21.40;;;;;;5024615;28;20429;-74
2023/07/09 11:37:17;;;;;;;5.00;4.50;;;45.80;20.40;;;;;;5004225;28;20439;-74
2023/07/09 11:39:46;;;;;;;4.93;4.20;;;45.30;20.40;;;;;;5010650;28;20225;-74
2023/07/09 11:42:32;;;;;;;6.33;4.90;;;45.00;20.10;;;;;;5006578;28;20446;-74
2023/07/09 11:45:01;;;;;;;7.67;4.50;;;45.00;20.70;;;;;;5009221;28;20503;-74
2023/07/09 11:47:47;;;;;;;5.00;4.50;;;44.80;21.60;;;;;;5008457;28;20449;-74
2023/07/09 11:50:28;;;;;;;5.20;4.20;;;44.60;22.20;;;;;;5008407;28;20473;-74
2023/07/09 11:53:12;;;;;;;5.07;4.30;;;43.20;22.40;;;;;;5008173;28;20530;-73
2023/07/09 11:55:41;;;;;;;5.00;3.90;;;42.70;22.70;;;;;;5007688;28;20440;-73
2023/07/09 11:58:11;;;;;;;7.30;4.63;;;42.40;22.90;;;;;;5004273;28;20533;-73
2023/07/09 12:00:45;;;;;;;5.93;4.30;;;41.40;23.20;;;;;;5010479;28;20465;-73
2023/07/09 12:03:19;;;;;;;4.97;4.43;;;40.80;23.60;;;;;;5009249;28;20465;-73
2023/07/09 12:05:50;;;;;;;5.57;4.53;;;40.10;23.30;;;;;;5006105;28;20432;-73
2023/07/09 12:08:17;;;;;;;5.10;4.60;;;39.50;24.50;;;;;;5008440;28;20541;-73
2023/07/09 12:10:44;;;;;;;5.83;5.00;;;38.90;25.30;;;;;;5010545;28;20542;-73
2023/07/09 12:13:11;;;;;;;7.53;4.60;;;38.40;24.90;;;;;;5001257;28;20469;-73
2023/07/09 12:15:39;;;;;;;5.00;4.00;;;38.20;25.30;;;;;;5006749;28;20491;-73
2023/07/09 12:18:14;;;;;;;5.80;4.53;;;37.90;24.30;;;;;;5005216;28;20445;-71
2023/07/09 12:20:41;;;;;;;6.13;4.53;;;37.80;24.90;;;;;;5007525;28;20445;-72
2023/07/09 12:23:30;;;;;;;6.90;4.27;;;37.70;25.40;;;;;;4999671;28;21016;-72
2023/07/09 12:26:00;;;;;;;7.07;4.60;;;37.50;25.60;;;;;;5005257;28;20438;-71
2023/07/09 12:28:28;;;;;;;6.33;4.10;;;37.10;26.00;;;;;;5000517;28;20489;-72
2023/07/09 12:30:53;;;;;;;5.03;4.10;;;37.00;26.40;;;;;;5007095;28;20477;-72
2023/07/09 12:33:25;;;;;;;5.03;4.57;;;37.10;27.70;;;;;;5006548;28;20468;-72
2023/07/09 12:36:00;;;;;;;4.50;4.10;;;37.10;27.60;;;;;;5007117;28;20259;-72
2023/07/09 12:38:32;;;;;;;7.03;4.43;;;36.90;28.00;;;;;;5006097;28;20444;-72
2023/07/09 12:41:00;;;;;;;4.83;3.83;;;36.90;28.00;;;;;;5007496;28;20495;-72
2023/07/09 12:43:31;;;;;;;6.87;4.47;;;36.90;27.80;;;;;;5002874;28;20516;-72
2023/07/09 12:46:00;;;;;;;5.43;4.20;;;36.80;28.10;;;;;;5006766;28;20461;-71
2023/07/09 12:48:29;;;;;;;5.30;4.80;;;36.80;28.20;;;;;;5006706;28;20954;-71
2023/07/09 12:50:59;;;;;;;5.47;3.97;;;36.40;28.20;;;;;;5007588;28;20530;-72
2023/07/09 12:53:29;;;;;;;7.60;4.30;;;36.40;28.60;;;;;;5000094;28;20504;-73
2023/07/09 12:55:56;;;;;;;4.50;4.10;;;36.50;28.70;;;;;;5008049;28;20953;-72
2023/07/09 12:58:36;;;;;;;4.77;4.00;;;36.50;28.50;;;;;;5005688;28;20445;-72
2023/07/09 13:01:13;;;;;;;4.70;4.10;;;36.40;29.20;;;;;;5007238;28;20451;-74